Tramper — PHAA — position and weather

sailwx.info

Track history (hours):
 
Tides and Currents Weather Stations Pressure Air Temp Water Temp Dewpoint Dewpoint Depression Visibility Wind Speed Wind Dir Waves Ship Positions

Tramper

Last reported at 2017-Jun-22 23:09 UTC. Time now 2017-Jun-23 03:30 UTC.
Position N 33°16' E 031°03'.

Length 101 m; beam 20 m.

Type: Cargo ship. MMSI: 245867000.

Date/timePositionNaut miles runAvg speedWind from/ knotsBaromVisibWave heightAir tempDewpointWater temp
2017-Jun-22 23:09N 33°16' E 031°03'7414.3
2017-Jun-22 18:00N 33°30' E 029°36'31714.3 340 / 61013.8 5.4 23.018.5
2017-Jun-21 19:43N 34°47' E 023°24'514.0
2017-Jun-21 19:24N 34°48' E 023°19'2014.3
2017-Jun-21 18:00N 34°48' E 022°54'17714.7 350 / 81014.9 5.4 23.320.7
2017-Jun-21 06:00N 35°30' E 019°24'6212.4 320 / 71017.110.8 23.220.0
2017-Jun-21 00:57N 35°47' E 018°10'4414.2
2017-Jun-20 21:50N 35°57' E 017°17'513.9
2017-Jun-20 21:27N 35°58' E 017°11'613.9
2017-Jun-20 21:00N 35°59' E 017°03'714.0
2017-Jun-20 20:30N 36°02' E 016°55'1014.1
2017-Jun-20 19:47N 36°04' E 016°43'414.1
2017-Jun-20 19:30N 36°05' E 016°38'2617.1
2017-Jun-20 18:00N 36°06' E 016°06'527.5 040 / 21019.4 5.4 24.018.0
2017-Jun-20 17:48N 36°11' E 016°08'814.4
2017-Jun-20 17:16N 36°13' E 015°59'414.0
2017-Jun-20 17:00N 36°13' E 015°55'813.9
2017-Jun-20 16:26N 36°15' E 015°45'2513.8
2017-Jun-20 14:36N 36°21' E 015°14'1114.3
2017-Jun-20 13:49N 36°24' E 015°01'514.3
2017-Jun-20 13:28N 36°25' E 014°55'714.6
2017-Jun-20 13:00N 36°26' E 014°47'714.6
2017-Jun-20 12:30N 36°28' E 014°38'714.5
2017-Jun-20 12:00N 36°30' E 014°29'714.7
2017-Jun-20 11:30N 36°33' E 014°21'714.7
2017-Jun-20 11:00N 36°35' E 014°12'714.7
2017-Jun-20 10:30N 36°37' E 014°03'714.6
2017-Jun-20 10:00N 36°40' E 013°55'714.7
2017-Jun-20 09:30N 36°42' E 013°46'714.6
2017-Jun-20 09:00N 36°44' E 013°37'714.4
2017-Jun-20 08:30N 36°46' E 013°29'714.1
2017-Jun-20 08:00N 36°48' E 013°20'714.0
2017-Jun-20 07:31N 36°50' E 013°12'714.1
2017-Jun-20 07:00N 36°52' E 013°03'714.2
2017-Jun-20 06:30N 36°54' E 012°55'714.2
2017-Jun-20 06:00N 36°57' E 012°46'31517.8
2017-Jun-20 06:00N 36°54' E 012°48'1018.8 1020.927.0 23.020.2
2017-Jun-20 05:29N 36°59' E 012°38'713.8
2017-Jun-20 04:59N 37°01' E 012°29'714.7
2017-Jun-20 04:30N 37°03' E 012°21'2114.9
2017-Jun-20 03:07N 37°10' E 011°57'114.4
2017-Jun-20 03:00N 37°11' E 011°55'1414.2
2017-Jun-20 02:02N 37°15' E 011°38'013.9
2017-Jun-20 02:01N 37°15' E 011°38'10314.1
2017-Jun-19 18:41N 37°37' E 009°31'214.2
2017-Jun-19 18:30N 37°37' E 009°28'714.2
2017-Jun-19 18:00N 37°39' E 009°19'3292.0
2017-Jun-19 18:00N 37°36' E 009°18'815.7 080 / 151014.010.8 24.016.9
2017-Jun-19 17:30N 37°40' E 009°10'814.3
2017-Jun-19 16:58N 37°41' E 009°00'713.9
2017-Jun-19 16:28N 37°42' E 008°51'713.9
2017-Jun-19 15:59N 37°41' E 008°43'1213.7
2017-Jun-19 15:07N 37°39' E 008°28'213.6
2017-Jun-19 14:59N 37°39' E 008°26'1413.6
2017-Jun-19 13:59N 37°36' E 008°09'1614.1
2017-Jun-19 12:49N 37°34' E 007°49'914.1
2017-Jun-19 12:11N 37°33' E 007°37'213.9
2017-Jun-19 12:00N 37°32' E 007°34'713.8
2017-Jun-19 11:30N 37°31' E 007°26'913.7
2017-Jun-19 10:52N 37°30' E 007°15'513.9
2017-Jun-19 10:31N 37°29' E 007°09'1314.0
2017-Jun-19 09:33N 37°27' E 006°52'114.0
2017-Jun-19 09:30N 37°27' E 006°51'613174.3
2017-Jun-19 06:00N 37°18' W 006°00'560461.9 080 / 151016.410.8 23.822.1
2017-Jun-19 04:47N 37°19' E 005°44'11814.0
2017-Jun-18 20:24N 37°02' E 003°17'714.4
2017-Jun-18 19:56N 37°01' E 003°09'914.4
2017-Jun-18 19:18N 36°59' E 002°58'614.4
2017-Jun-18 18:53N 36°58' E 002°51'514.3
2017-Jun-18 18:31N 36°57' E 002°44'714.2
2017-Jun-18 18:01N 36°56' E 002°35'714.1
2017-Jun-18 17:30N 36°55' E 002°26'714.1
2017-Jun-18 16:59N 36°54' E 002°17'714.2
2017-Jun-18 16:30N 36°53' E 002°09'814.3
2017-Jun-18 15:56N 36°52' E 001°59'614.2
2017-Jun-18 15:30N 36°52' E 001°51'714.1
2017-Jun-18 15:00N 36°51' E 001°42'1413.9
2017-Jun-18 14:00N 36°48' E 001°25'713.9
2017-Jun-18 13:30N 36°47' E 001°17'714.0
2017-Jun-18 13:00N 36°46' E 001°08'714.0
2017-Jun-18 12:31N 36°45' E 000°60'913.9
2017-Jun-18 11:50N 36°43' E 000°48'514.2
2017-Jun-18 11:29N 36°43' E 000°42'714.6
2017-Jun-18 11:00N 36°42' E 000°33'714.5
2017-Jun-18 10:30N 36°41' E 000°24'714.2
2017-Jun-18 10:00N 36°39' E 000°16'714.0
2017-Jun-18 09:30N 36°38' E 000°07'713.9
2017-Jun-18 09:00N 36°37' W 000°02'713.9
2017-Jun-18 08:30N 36°36' W 000°10'714.0
2017-Jun-18 08:00N 36°35' W 000°19'714.3
2017-Jun-18 07:30N 36°34' W 000°28'714.1
2017-Jun-18 07:00N 36°33' W 000°36'714.0
2017-Jun-18 06:30N 36°32' W 000°45'814.9
2017-Jun-18 06:00N 36°30' W 000°54'1940.7 050 / 91013.927.0 23.521.2
2017-Jun-18 05:59N 36°31' W 000°54'714.0
2017-Jun-18 05:30N 36°30' W 001°02'913.3
2017-Jun-18 04:50N 36°29' W 001°13'413.4
2017-Jun-18 04:30N 36°29' W 001°19'713.5
2017-Jun-18 04:00N 36°28' W 001°27'713.6
2017-Jun-18 03:30N 36°27' W 001°35'713.7
2017-Jun-18 03:00N 36°26' W 001°44'713.6
2017-Jun-18 02:30N 36°25' W 001°52'713.7
2017-Jun-18 02:00N 36°23' W 002°00'11214.0
2017-Jun-17 18:00N 36°06' W 004°18'3116.2 090 / 41014.127.0 24.219.8
2017-Jun-17 16:05N 36°04' W 004°56'315.3
2017-Jun-17 15:55N 36°03' W 004°59'615.4
2017-Jun-17 15:30N 36°02' W 005°07'815.3
2017-Jun-17 15:01N 36°01' W 005°16'1515.1
2017-Jun-17 14:00N 35°56' W 005°34'1213.6
2017-Jun-17 13:06N 35°55' W 005°49'412.3
2017-Jun-17 12:48N 35°55' W 005°54'7112.6
2017-Jun-17 07:12N 36°08' W 007°19'312.8
2017-Jun-17 06:59N 36°09' W 007°22'712.9
2017-Jun-17 06:26N 36°11' W 007°31'4 9.5
2017-Jun-17 06:00N 36°12' W 007°36'256.1 110 / 181011.910.8 23.518.0
2017-Jun-17 05:58N 36°12' W 007°38'612.2
2017-Jun-17 05:29N 36°14' W 007°45'612.3
2017-Jun-17 05:01N 36°16' W 007°52'612.5
2017-Jun-17 04:29N 36°17' W 007°60'712.3
2017-Jun-17 03:57N 36°19' W 008°08'612.4
2017-Jun-17 03:26N 36°21' W 008°15'612.2
2017-Jun-17 02:58N 36°22' W 008°22'612.2
2017-Jun-17 02:30N 36°24' W 008°29'612.3
2017-Jun-17 02:00N 36°25' W 008°36'712.9
2017-Jun-17 01:30N 36°27' W 008°44'813.4
2017-Jun-17 00:53N 36°30' W 008°54'513.3
2017-Jun-17 00:30N 36°31' W 008°60'713.8
2017-Jun-17 00:00N 36°32' W 009°08'713.5
2017-Jun-16 23:30N 36°34' W 009°16'713.8
2017-Jun-16 23:01N 36°38' W 009°23'714.4
2017-Jun-16 22:31N 36°43' W 009°30'714.2
2017-Jun-16 22:01N 36°49' W 009°35'714.3
2017-Jun-16 21:31N 36°56' W 009°36'714.2
2017-Jun-16 21:00N 37°03' W 009°37'714.4
2017-Jun-16 20:31N 37°10' W 009°40'714.3
2017-Jun-16 20:01N 37°17' W 009°42'714.2
2017-Jun-16 19:31N 37°24' W 009°44'714.1
2017-Jun-16 19:00N 37°31' W 009°46'714.3
2017-Jun-16 18:31N 37°38' W 009°48'714.7
2017-Jun-16 18:01N 37°45' W 009°50'3193.2
2017-Jun-16 18:00N 37°42' W 009°48'1121.9 020 / 181016.810.8 22.018.3
2017-Jun-16 17:31N 37°52' W 009°52'714.6
2017-Jun-16 17:01N 37°59' W 009°54'714.7
2017-Jun-16 16:31N 38°06' W 009°56'714.8
2017-Jun-16 16:01N 38°14' W 009°58'714.9
2017-Jun-16 15:31N 38°21' W 010°00'714.9
2017-Jun-16 15:01N 38°28' W 010°02'1514.8
2017-Jun-16 14:01N 38°43' W 010°06'714.6
2017-Jun-16 13:30N 38°50' W 010°06'714.2
2017-Jun-16 13:01N 38°57' W 010°06'714.5
2017-Jun-16 12:30N 39°04' W 010°06'714.8
2017-Jun-16 12:00N 39°12' W 010°07'714.0
2017-Jun-16 11:31N 39°19' W 010°07'714.4
2017-Jun-16 11:01N 39°26' W 010°07'714.2
2017-Jun-16 10:31N 39°33' W 010°06'714.0
2017-Jun-16 10:00N 39°40' W 010°06'714.2
2017-Jun-16 09:30N 39°47' W 010°06'714.3
2017-Jun-16 09:00N 39°54' W 010°06'714.6
2017-Jun-16 08:30N 40°02' W 010°06'714.5
2017-Jun-16 08:00N 40°09' W 010°06'814.3
2017-Jun-16 07:28N 40°17' W 010°06'714.6
2017-Jun-16 07:00N 40°23' W 010°06'714.7
2017-Jun-16 06:30N 40°31' W 010°07'814.8
2017-Jun-16 06:00N 40°38' W 010°07'2553.7
2017-Jun-16 06:00N 40°36' W 010°06'1019.8 020 / 181019.127.0 17.815.4
2017-Jun-16 05:30N 40°46' W 010°07'3114.6
2017-Jun-16 03:25N 41°16' W 010°06'30514.2
2017-Jun-15 06:00N 46°06' W 007°54'1017.6 230 / 91019.9 2.2 16.315.7
2017-Jun-15 05:24N 46°16' W 007°52'2514.2
2017-Jun-15 03:38N 46°38' W 007°35'1414.3
2017-Jun-15 02:38N 46°51' W 007°26'1413.9
2017-Jun-15 01:38N 47°04' W 007°16'914.1
2017-Jun-15 00:59N 47°12' W 007°10'1414.2
2017-Jun-14 23:59N 47°24' W 007°00'715.2
2017-Jun-14 23:30N 47°31' W 006°55'815.7
2017-Jun-14 22:59N 47°38' W 006°50'815.6
2017-Jun-14 22:27N 47°45' W 006°44'715.7
2017-Jun-14 22:00N 47°52' W 006°39'815.1
2017-Jun-14 21:29N 47°58' W 006°33'714.7
2017-Jun-14 21:01N 48°05' W 006°28'714.6
2017-Jun-14 20:30N 48°11' W 006°23'714.2
2017-Jun-14 19:59N 48°18' W 006°18'714.1
2017-Jun-14 19:30N 48°23' W 006°13'713.7
2017-Jun-14 19:01N 48°30' W 006°08'713.5
2017-Jun-14 18:31N 48°36' W 006°04'713.4
2017-Jun-14 18:01N 48°42' W 005°59'713.5
2017-Jun-14 17:31N 48°48' W 005°54'713.6
2017-Jun-14 17:01N 48°53' W 005°49'713.3
2017-Jun-14 16:30N 48°57' W 005°41'714.0
2017-Jun-14 16:00N 49°01' W 005°32'714.2
2017-Jun-14 15:31N 49°04' W 005°22'714.7
2017-Jun-14 15:01N 49°08' W 005°12'1515.3
2017-Jun-14 14:01N 49°15' W 004°52'815.7
2017-Jun-14 13:30N 49°19' W 004°41'915.8
2017-Jun-14 12:58N 49°23' W 004°30'1015.7
2017-Jun-14 12:17N 49°28' W 004°16'415.3
2017-Jun-14 12:00N 49°30' W 004°10'815.1
2017-Jun-14 11:29N 49°34' W 003°59'814.6
2017-Jun-14 10:58N 49°38' W 003°49'1114.2
2017-Jun-14 10:14N 49°44' W 003°36'313.9
2017-Jun-14 10:00N 49°45' W 003°32'713.5
2017-Jun-14 09:31N 49°49' W 003°23'713.0
2017-Jun-14 09:00N 49°52' W 003°14'713.2
2017-Jun-14 08:28N 49°56' W 003°04'613.4
2017-Jun-14 08:01N 49°58' W 002°56'714.0
2017-Jun-14 07:31N 50°00' W 002°45'714.5
2017-Jun-14 07:01N 50°02' W 002°34'714.4
2017-Jun-14 06:31N 50°03' W 002°23'815.6
2017-Jun-14 06:01N 50°00' W 002°12'816.6
2017-Jun-14 05:31N 49°58' W 001°60'917.2
2017-Jun-14 05:01N 49°55' W 001°47'917.5
2017-Jun-14 04:31N 49°53' W 001°34'918.0
2017-Jun-14 04:00N 49°51' W 001°20'918.0
2017-Jun-14 03:31N 49°48' W 001°07'816.9
2017-Jun-14 03:01N 49°44' W 000°55'815.7
2017-Jun-14 02:31N 49°41' W 000°44'815.1
2017-Jun-14 02:00N 49°38' W 000°34'714.6
2017-Jun-14 01:30N 49°35' W 000°24'714.2
2017-Jun-14 01:00N 49°31' W 000°14'714.0
2017-Jun-14 00:31N 49°29' W 000°04'612.9
2017-Jun-14 00:01N 49°26' E 000°05'713.5
2017-Jun-13 23:30N 49°26' E 000°16'611.7
2017-Jun-13 23:01N 49°27' E 000°24'4 8.9
2017-Jun-13 22:30N 49°29' E 000°30'4 8.0
2017-Jun-13 22:01N 49°26' E 000°35'810.1
2017-Jun-13 21:12N 49°31' E 000°44'312.0
2017-Jun-13 20:57N 49°29' E 000°47'1 1.1
2017-Jun-13 20:11N 49°29' E 000°48'0 0.0
2017-Jun-13 19:56N 49°29' E 000°48'0 0.0
2017-Jun-13 19:26N 49°29' E 000°48'0 0.0
2017-Jun-13 18:23N 49°29' E 000°48'0 0.0
2017-Jun-13 17:59N 49°29' E 000°48'0 0.0
2017-Jun-13 17:23N 49°29' E 000°48'0 0.0
2017-Jun-13 16:50N 49°29' E 000°48'0 0.0
2017-Jun-13 16:23N 49°29' E 000°48'0 0.0
2017-Jun-13 15:59N 49°29' E 000°48'0 0.0
2017-Jun-13 15:29N 49°29' E 000°48'0 0.0
2017-Jun-13 14:59N 49°29' E 000°48'0 0.0
2017-Jun-13 14:29N 49°29' E 000°48'0 0.0
2017-Jun-13 13:29N 49°29' E 000°48'0 0.0
2017-Jun-13 12:59N 49°29' E 000°48'0 0.0
2017-Jun-13 12:29N 49°29' E 000°48'0 0.0
2017-Jun-13 11:59N 49°29' E 000°48'0 0.0
2017-Jun-13 11:26N 49°29' E 000°48'0 0.0
2017-Jun-13 10:56N 49°29' E 000°48'0 0.0
2017-Jun-13 10:29N 49°29' E 000°48'0 0.0
2017-Jun-13 09:53N 49°29' E 000°48'0 0.0
2017-Jun-13 09:08N 49°29' E 000°48'0 0.0
2017-Jun-13 08:47N 49°29' E 000°48'0 0.0
2017-Jun-13 08:14N 49°29' E 000°48'0 0.0
2017-Jun-13 07:59N 49°29' E 000°48'0 0.0
2017-Jun-13 07:20N 49°29' E 000°48'0 0.0
2017-Jun-13 06:59N 49°29' E 000°48'0 0.0
2017-Jun-13 06:26N 49°29' E 000°48'0 0.0
2017-Jun-13 05:59N 49°29' E 000°48'0 0.0
2017-Jun-13 05:31N 49°29' E 000°48'3 1.0
2017-Jun-13 02:36N 49°31' E 000°45'0 0.0
2017-Jun-13 02:18N 49°31' E 000°45'0 0.0
2017-Jun-13 01:48N 49°31' E 000°45'0 0.0
2017-Jun-13 00:33N 49°31' E 000°45'  
Track history (hours):
 
Tides and Currents Weather Stations Pressure Air Temp Water Temp Dewpoint Dewpoint Depression Visibility Wind Speed Wind Dir Waves Ship Positions

Tramper

Last reported at 2017-Jun-22 23:09 UTC. Time now 2017-Jun-23 03:30 UTC.
Position N 33°16' E 031°03'.

Length 101 m; beam 20 m.

Type: Cargo ship. MMSI: 245867000.

Date/timePositionNaut miles runAvg speedWind from/ knotsBaromVisibWave heightAir tempDewpointWater temp
2017-Jun-22 23:09N 33°16' E 031°03'7414.3
2017-Jun-22 18:00N 33°30' E 029°36'31714.3 340 / 61013.8 5.4 23.018.5
2017-Jun-21 19:43N 34°47' E 023°24'514.0
2017-Jun-21 19:24N 34°48' E 023°19'2014.3
2017-Jun-21 18:00N 34°48' E 022°54'17714.7 350 / 81014.9 5.4 23.320.7
2017-Jun-21 06:00N 35°30' E 019°24'6212.4 320 / 71017.110.8 23.220.0
2017-Jun-21 00:57N 35°47' E 018°10'4414.2
2017-Jun-20 21:50N 35°57' E 017°17'513.9
2017-Jun-20 21:27N 35°58' E 017°11'613.9
2017-Jun-20 21:00N 35°59' E 017°03'714.0
2017-Jun-20 20:30N 36°02' E 016°55'1014.1
2017-Jun-20 19:47N 36°04' E 016°43'414.1
2017-Jun-20 19:30N 36°05' E 016°38'2617.1
2017-Jun-20 18:00N 36°06' E 016°06'527.5 040 / 21019.4 5.4 24.018.0
2017-Jun-20 17:48N 36°11' E 016°08'814.4
2017-Jun-20 17:16N 36°13' E 015°59'414.0
2017-Jun-20 17:00N 36°13' E 015°55'813.9
2017-Jun-20 16:26N 36°15' E 015°45'2513.8
2017-Jun-20 14:36N 36°21' E 015°14'1114.3
2017-Jun-20 13:49N 36°24' E 015°01'514.3
2017-Jun-20 13:28N 36°25' E 014°55'714.6
2017-Jun-20 13:00N 36°26' E 014°47'714.6
2017-Jun-20 12:30N 36°28' E 014°38'714.5
2017-Jun-20 12:00N 36°30' E 014°29'714.7
2017-Jun-20 11:30N 36°33' E 014°21'714.7
2017-Jun-20 11:00N 36°35' E 014°12'714.7
2017-Jun-20 10:30N 36°37' E 014°03'714.6
2017-Jun-20 10:00N 36°40' E 013°55'714.7
2017-Jun-20 09:30N 36°42' E 013°46'714.6
2017-Jun-20 09:00N 36°44' E 013°37'714.4
2017-Jun-20 08:30N 36°46' E 013°29'714.1
2017-Jun-20 08:00N 36°48' E 013°20'714.0
2017-Jun-20 07:31N 36°50' E 013°12'714.1
2017-Jun-20 07:00N 36°52' E 013°03'714.2
2017-Jun-20 06:30N 36°54' E 012°55'714.2
2017-Jun-20 06:00N 36°57' E 012°46'31517.8
2017-Jun-20 06:00N 36°54' E 012°48'1018.8 1020.927.0 23.020.2
2017-Jun-20 05:29N 36°59' E 012°38'713.8
2017-Jun-20 04:59N 37°01' E 012°29'714.7
2017-Jun-20 04:30N 37°03' E 012°21'2114.9
2017-Jun-20 03:07N 37°10' E 011°57'114.4
2017-Jun-20 03:00N 37°11' E 011°55'1414.2
2017-Jun-20 02:02N 37°15' E 011°38'013.9
2017-Jun-20 02:01N 37°15' E 011°38'10314.1
2017-Jun-19 18:41N 37°37' E 009°31'214.2
2017-Jun-19 18:30N 37°37' E 009°28'714.2
2017-Jun-19 18:00N 37°39' E 009°19'3292.0
2017-Jun-19 18:00N 37°36' E 009°18'815.7 080 / 151014.010.8 24.016.9
2017-Jun-19 17:30N 37°40' E 009°10'814.3
2017-Jun-19 16:58N 37°41' E 009°00'713.9
2017-Jun-19 16:28N 37°42' E 008°51'713.9
2017-Jun-19 15:59N 37°41' E 008°43'1213.7
2017-Jun-19 15:07N 37°39' E 008°28'213.6
2017-Jun-19 14:59N 37°39' E 008°26'1413.6
2017-Jun-19 13:59N 37°36' E 008°09'1614.1
2017-Jun-19 12:49N 37°34' E 007°49'914.1
2017-Jun-19 12:11N 37°33' E 007°37'213.9
2017-Jun-19 12:00N 37°32' E 007°34'713.8
2017-Jun-19 11:30N 37°31' E 007°26'913.7
2017-Jun-19 10:52N 37°30' E 007°15'513.9
2017-Jun-19 10:31N 37°29' E 007°09'1314.0
2017-Jun-19 09:33N 37°27' E 006°52'114.0
2017-Jun-19 09:30N 37°27' E 006°51'613174.3
2017-Jun-19 06:00N 37°18' W 006°00'560461.9 080 / 151016.410.8 23.822.1
2017-Jun-19 04:47N 37°19' E 005°44'11814.0
2017-Jun-18 20:24N 37°02' E 003°17'714.4
2017-Jun-18 19:56N 37°01' E 003°09'914.4
2017-Jun-18 19:18N 36°59' E 002°58'614.4
2017-Jun-18 18:53N 36°58' E 002°51'514.3
2017-Jun-18 18:31N 36°57' E 002°44'714.2
2017-Jun-18 18:01N 36°56' E 002°35'714.1
2017-Jun-18 17:30N 36°55' E 002°26'714.1
2017-Jun-18 16:59N 36°54' E 002°17'714.2
2017-Jun-18 16:30N 36°53' E 002°09'814.3
2017-Jun-18 15:56N 36°52' E 001°59'614.2
2017-Jun-18 15:30N 36°52' E 001°51'714.1
2017-Jun-18 15:00N 36°51' E 001°42'1413.9
2017-Jun-18 14:00N 36°48' E 001°25'713.9
2017-Jun-18 13:30N 36°47' E 001°17'714.0
2017-Jun-18 13:00N 36°46' E 001°08'714.0
2017-Jun-18 12:31N 36°45' E 000°60'913.9
2017-Jun-18 11:50N 36°43' E 000°48'514.2
2017-Jun-18 11:29N 36°43' E 000°42'714.6
2017-Jun-18 11:00N 36°42' E 000°33'714.5
2017-Jun-18 10:30N 36°41' E 000°24'714.2
2017-Jun-18 10:00N 36°39' E 000°16'714.0
2017-Jun-18 09:30N 36°38' E 000°07'713.9
2017-Jun-18 09:00N 36°37' W 000°02'713.9
2017-Jun-18 08:30N 36°36' W 000°10'714.0
2017-Jun-18 08:00N 36°35' W 000°19'714.3
2017-Jun-18 07:30N 36°34' W 000°28'714.1
2017-Jun-18 07:00N 36°33' W 000°36'714.0
2017-Jun-18 06:30N 36°32' W 000°45'814.9
2017-Jun-18 06:00N 36°30' W 000°54'1940.7 050 / 91013.927.0 23.521.2
2017-Jun-18 05:59N 36°31' W 000°54'714.0
2017-Jun-18 05:30N 36°30' W 001°02'913.3
2017-Jun-18 04:50N 36°29' W 001°13'413.4
2017-Jun-18 04:30N 36°29' W 001°19'713.5
2017-Jun-18 04:00N 36°28' W 001°27'713.6
2017-Jun-18 03:30N 36°27' W 001°35'713.7
2017-Jun-18 03:00N 36°26' W 001°44'713.6
2017-Jun-18 02:30N 36°25' W 001°52'713.7
2017-Jun-18 02:00N 36°23' W 002°00'11214.0
2017-Jun-17 18:00N 36°06' W 004°18'3116.2 090 / 41014.127.0 24.219.8
2017-Jun-17 16:05N 36°04' W 004°56'315.3
2017-Jun-17 15:55N 36°03' W 004°59'615.4
2017-Jun-17 15:30N 36°02' W 005°07'815.3
2017-Jun-17 15:01N 36°01' W 005°16'1515.1
2017-Jun-17 14:00N 35°56' W 005°34'1213.6
2017-Jun-17 13:06N 35°55' W 005°49'412.3
2017-Jun-17 12:48N 35°55' W 005°54'7112.6
2017-Jun-17 07:12N 36°08' W 007°19'312.8
2017-Jun-17 06:59N 36°09' W 007°22'712.9
2017-Jun-17 06:26N 36°11' W 007°31'4 9.5
2017-Jun-17 06:00N 36°12' W 007°36'256.1 110 / 181011.910.8 23.518.0
2017-Jun-17 05:58N 36°12' W 007°38'612.2
2017-Jun-17 05:29N 36°14' W 007°45'612.3
2017-Jun-17 05:01N 36°16' W 007°52'612.5
2017-Jun-17 04:29N 36°17' W 007°60'712.3
2017-Jun-17 03:57N 36°19' W 008°08'612.4
2017-Jun-17 03:26N 36°21' W 008°15'612.2
2017-Jun-17 02:58N 36°22' W 008°22'612.2
2017-Jun-17 02:30N 36°24' W 008°29'612.3
2017-Jun-17 02:00N 36°25' W 008°36'712.9
2017-Jun-17 01:30N 36°27' W 008°44'813.4
2017-Jun-17 00:53N 36°30' W 008°54'513.3
2017-Jun-17 00:30N 36°31' W 008°60'713.8
2017-Jun-17 00:00N 36°32' W 009°08'713.5
2017-Jun-16 23:30N 36°34' W 009°16'713.8
2017-Jun-16 23:01N 36°38' W 009°23'714.4
2017-Jun-16 22:31N 36°43' W 009°30'714.2
2017-Jun-16 22:01N 36°49' W 009°35'714.3
2017-Jun-16 21:31N 36°56' W 009°36'714.2
2017-Jun-16 21:00N 37°03' W 009°37'714.4
2017-Jun-16 20:31N 37°10' W 009°40'714.3
2017-Jun-16 20:01N 37°17' W 009°42'714.2
2017-Jun-16 19:31N 37°24' W 009°44'714.1
2017-Jun-16 19:00N 37°31' W 009°46'714.3
2017-Jun-16 18:31N 37°38' W 009°48'714.7
2017-Jun-16 18:01N 37°45' W 009°50'3193.2
2017-Jun-16 18:00N 37°42' W 009°48'1121.9 020 / 181016.810.8 22.018.3
2017-Jun-16 17:31N 37°52' W 009°52'714.6
2017-Jun-16 17:01N 37°59' W 009°54'714.7
2017-Jun-16 16:31N 38°06' W 009°56'714.8
2017-Jun-16 16:01N 38°14' W 009°58'714.9
2017-Jun-16 15:31N 38°21' W 010°00'714.9
2017-Jun-16 15:01N 38°28' W 010°02'1514.8
2017-Jun-16 14:01N 38°43' W 010°06'714.6
2017-Jun-16 13:30N 38°50' W 010°06'714.2
2017-Jun-16 13:01N 38°57' W 010°06'714.5
2017-Jun-16 12:30N 39°04' W 010°06'714.8
2017-Jun-16 12:00N 39°12' W 010°07'714.0
2017-Jun-16 11:31N 39°19' W 010°07'714.4
2017-Jun-16 11:01N 39°26' W 010°07'714.2
2017-Jun-16 10:31N 39°33' W 010°06'714.0
2017-Jun-16 10:00N 39°40' W 010°06'714.2
2017-Jun-16 09:30N 39°47' W 010°06'714.3
2017-Jun-16 09:00N 39°54' W 010°06'714.6
2017-Jun-16 08:30N 40°02' W 010°06'714.5
2017-Jun-16 08:00N 40°09' W 010°06'814.3
2017-Jun-16 07:28N 40°17' W 010°06'714.6
2017-Jun-16 07:00N 40°23' W 010°06'714.7
2017-Jun-16 06:30N 40°31' W 010°07'814.8
2017-Jun-16 06:00N 40°38' W 010°07'2553.7
2017-Jun-16 06:00N 40°36' W 010°06'1019.8 020 / 181019.127.0 17.815.4
2017-Jun-16 05:30N 40°46' W 010°07'3114.6
2017-Jun-16 03:25N 41°16' W 010°06'30514.2
2017-Jun-15 06:00N 46°06' W 007°54'1017.6 230 / 91019.9 2.2 16.315.7
2017-Jun-15 05:24N 46°16' W 007°52'2514.2
2017-Jun-15 03:38N 46°38' W 007°35'1414.3
2017-Jun-15 02:38N 46°51' W 007°26'1413.9
2017-Jun-15 01:38N 47°04' W 007°16'914.1
2017-Jun-15 00:59N 47°12' W 007°10'1414.2
2017-Jun-14 23:59N 47°24' W 007°00'715.2
2017-Jun-14 23:30N 47°31' W 006°55'815.7
2017-Jun-14 22:59N 47°38' W 006°50'815.6
2017-Jun-14 22:27N 47°45' W 006°44'715.7
2017-Jun-14 22:00N 47°52' W 006°39'815.1
2017-Jun-14 21:29N 47°58' W 006°33'714.7
2017-Jun-14 21:01N 48°05' W 006°28'714.6
2017-Jun-14 20:30N 48°11' W 006°23'714.2
2017-Jun-14 19:59N 48°18' W 006°18'714.1
2017-Jun-14 19:30N 48°23' W 006°13'713.7
2017-Jun-14 19:01N 48°30' W 006°08'713.5
2017-Jun-14 18:31N 48°36' W 006°04'713.4
2017-Jun-14 18:01N 48°42' W 005°59'713.5
2017-Jun-14 17:31N 48°48' W 005°54'713.6
2017-Jun-14 17:01N 48°53' W 005°49'713.3
2017-Jun-14 16:30N 48°57' W 005°41'714.0
2017-Jun-14 16:00N 49°01' W 005°32'714.2
2017-Jun-14 15:31N 49°04' W 005°22'714.7
2017-Jun-14 15:01N 49°08' W 005°12'1515.3
2017-Jun-14 14:01N 49°15' W 004°52'815.7
2017-Jun-14 13:30N 49°19' W 004°41'915.8
2017-Jun-14 12:58N 49°23' W 004°30'1015.7
2017-Jun-14 12:17N 49°28' W 004°16'415.3
2017-Jun-14 12:00N 49°30' W 004°10'815.1
2017-Jun-14 11:29N 49°34' W 003°59'814.6
2017-Jun-14 10:58N 49°38' W 003°49'1114.2
2017-Jun-14 10:14N 49°44' W 003°36'313.9
2017-Jun-14 10:00N 49°45' W 003°32'713.5
2017-Jun-14 09:31N 49°49' W 003°23'713.0
2017-Jun-14 09:00N 49°52' W 003°14'713.2
2017-Jun-14 08:28N 49°56' W 003°04'613.4
2017-Jun-14 08:01N 49°58' W 002°56'714.0
2017-Jun-14 07:31N 50°00' W 002°45'714.5
2017-Jun-14 07:01N 50°02' W 002°34'714.4
2017-Jun-14 06:31N 50°03' W 002°23'815.6
2017-Jun-14 06:01N 50°00' W 002°12'816.6
2017-Jun-14 05:31N 49°58' W 001°60'917.2
2017-Jun-14 05:01N 49°55' W 001°47'917.5
2017-Jun-14 04:31N 49°53' W 001°34'918.0
2017-Jun-14 04:00N 49°51' W 001°20'918.0
2017-Jun-14 03:31N 49°48' W 001°07'816.9
2017-Jun-14 03:01N 49°44' W 000°55'815.7
2017-Jun-14 02:31N 49°41' W 000°44'815.1
2017-Jun-14 02:00N 49°38' W 000°34'714.6
2017-Jun-14 01:30N 49°35' W 000°24'714.2
2017-Jun-14 01:00N 49°31' W 000°14'714.0
2017-Jun-14 00:31N 49°29' W 000°04'612.9
2017-Jun-14 00:01N 49°26' E 000°05'713.5
2017-Jun-13 23:30N 49°26' E 000°16'611.7
2017-Jun-13 23:01N 49°27' E 000°24'4 8.9
2017-Jun-13 22:30N 49°29' E 000°30'4 8.0
2017-Jun-13 22:01N 49°26' E 000°35'810.1
2017-Jun-13 21:12N 49°31' E 000°44'312.0
2017-Jun-13 20:57N 49°29' E 000°47'1 1.1
2017-Jun-13 20:11N 49°29' E 000°48'0 0.0
2017-Jun-13 19:56N 49°29' E 000°48'0 0.0
2017-Jun-13 19:26N 49°29' E 000°48'0 0.0
2017-Jun-13 18:23N 49°29' E 000°48'0 0.0
2017-Jun-13 17:59N 49°29' E 000°48'0 0.0
2017-Jun-13 17:23N 49°29' E 000°48'0 0.0
2017-Jun-13 16:50N 49°29' E 000°48'0 0.0
2017-Jun-13 16:23N 49°29' E 000°48'0 0.0
2017-Jun-13 15:59N 49°29' E 000°48'0 0.0
2017-Jun-13 15:29N 49°29' E 000°48'0 0.0
2017-Jun-13 14:59N 49°29' E 000°48'0 0.0
2017-Jun-13 14:29N 49°29' E 000°48'0 0.0
2017-Jun-13 13:29N 49°29' E 000°48'0 0.0
2017-Jun-13 12:59N 49°29' E 000°48'0 0.0
2017-Jun-13 12:29N 49°29' E 000°48'0 0.0
2017-Jun-13 11:59N 49°29' E 000°48'0 0.0
2017-Jun-13 11:26N 49°29' E 000°48'0 0.0
2017-Jun-13 10:56N 49°29' E 000°48'0 0.0
2017-Jun-13 10:29N 49°29' E 000°48'0 0.0
2017-Jun-13 09:53N 49°29' E 000°48'0 0.0
2017-Jun-13 09:08N 49°29' E 000°48'0 0.0
2017-Jun-13 08:47N 49°29' E 000°48'0 0.0
2017-Jun-13 08:14N 49°29' E 000°48'0 0.0
2017-Jun-13 07:59N 49°29' E 000°48'0 0.0
2017-Jun-13 07:20N 49°29' E 000°48'0 0.0
2017-Jun-13 06:59N 49°29' E 000°48'0 0.0
2017-Jun-13 06:26N 49°29' E 000°48'0 0.0
2017-Jun-13 05:59N 49°29' E 000°48'0 0.0
2017-Jun-13 05:31N 49°29' E 000°48'3 1.0
2017-Jun-13 02:36N 49°31' E 000°45'0 0.0
2017-Jun-13 02:18N 49°31' E 000°45'0 0.0
2017-Jun-13 01:48N 49°31' E 000°45'0 0.0
2017-Jun-13 00:33N 49°31' E 000°45'  

Dump ship's entire track history